Airfield :
LOGIN :

Register | Disclaimer

   EN    FR    IT 

 










Legend :    VFR   Marginal VFR   IFR   Intensive IFR   Very Intensive IFR
Visi :
Ceiling :
>= 8 km
>= 3000ft
5 to 8 km
1000 to 3000 ft
1500m to 5 km
500 to 1000 ft
800 to 1500m
200 to 500 ft
< 800m
< 200 ft
Symbols :   Thunderstorms  Fog  Heavy snow  Heavy precipitations  Wind > 20 kt
SIGMETs :     Misc.  Thunderstorms  Icing  Turbulence  Mountain Waves  Volcanic Ashes







- Airport Elevation : 1548 ft


LKNA - Náměšť Air Base

CURRENT METAR :
  • 200335Z 33013G24KT 1000 +SHSN OVC005 00/M00 Q1014 RMK BLACK

EXPIRED METARs :
  • 200317Z 31011KT 4000 SHSN BKN010 OVC030 01/00 Q1013 RMK BLACK
  • 200300Z 31015KT 9999 -SHSN SCT015 OVC040 01/00 Q1013 RMK BLACK
  • 200233Z 30017KT 2000 -SHSN SCT007 BKN025 OVC040 01/M00 Q1013 RMK BLACK
  • 200216Z 31017G27KT 1000 +SHSN OVC005 01/M00 Q1012 RMK BLACK
  • 200200Z 28020KT 9999 -SHSN BKN012 OVC040 01/00 Q1012 RMK BLACK
  • 200100Z 27018KT 9999 -SHRA BKN012 OVC050 02/00 Q1012 RMK BLACK

TAF TAF LKNA
Valid from the 20 at 00:00 until the 21 at 00:00 UTC


192300Z 2000/2100 27014KT 9999 BKN035
TEMPO 2000/2014 28018G30KT 3000 SHSNRA BKN025
TEMPO 2000/2010 1500 SHSN SCT010 BKN020
No reported NOTAMs for that airfield.



MET'MAP, your aeronautical weather chart ! - Copyright ORBIFLY December 2007 - Disclaimer

ORBIFLY MET'MAP TEAM :

Programming & Development : Alexandra Zaïnal
Concept & Development : Baudouin d'Aumeries
Co-Development & Prog : Marc-Olivier Méhu
Technical & hardware support : Manuel Goepfert

Contact : metmap@orbifly.com




SOURCES & CREDITS :

   NOAA